Time;durP1;ratioP1;P1;durP2;ratioP2;P2;SDS_P1;SDS_P2;PMS_P1;PMS_P2;Temp;Humidity;BMP_temperature;BMP_pressure;BME280_temperature;BME280_humidity;BME280_pressure;Samples;Min_cycle;Max_cycle;Signal;HPM_P1;HPM_P2
2019/05/29 00:00:29;;;;;;;10;8;;;;;;;;;;;;;
2019/05/29 00:02:55;;;;;;;9.4;8.4;;;;;;;;;;;;;
2019/05/29 00:05:20;;;;;;;9.5;8.5;;;;;;;;;;;;;
2019/05/29 00:07:45;;;;;;;11;9;;;;;;;;;;;;;
2019/05/29 00:10:17;;;;;;;10.7;9.6;;;;;;;;;;;;;
2019/05/29 00:12:47;;;;;;;10;8.9;;;;;;;;;;;;;
2019/05/29 00:15:12;;;;;;;10.1;9.1;;;;;;;;;;;;;
2019/05/29 00:17:43;;;;;;;9.8;8.8;;;;;;;;;;;;;
2019/05/29 00:20:08;;;;;;;10;8.3;;;;;;;;;;;;;
2019/05/29 00:22:34;;;;;;;10.1;9.1;;;;;;;;;;;;;
2019/05/29 00:25:00;;;;;;;10.3;8.8;;;;;;;;;;;;;
2019/05/29 00:27:25;;;;;;;9;8.1;;;;;;;;;;;;;
2019/05/29 00:29:56;;;;;;;11;9;;;;;;;;;;;;;
2019/05/29 00:32:24;;;;;;;10.2;8.8;;;;;;;;;;;;;
2019/05/29 00:34:49;;;;;;;11.1;10;;;;;;;;;;;;;
2019/05/29 00:37:15;;;;;;;11.7;10.5;;;;;;;;;;;;;
2019/05/29 00:39:40;;;;;;;11.6;10.1;;;;;;;;;;;;;
2019/05/29 00:42:06;;;;;;;10.4;9.4;;;;;;;;;;;;;
2019/05/29 00:44:31;;;;;;;11.6;10.4;;;;;;;;;;;;;
2019/05/29 00:46:56;;;;;;;11.2;9.5;;;;;;;;;;;;;
2019/05/29 00:49:23;;;;;;;11.2;10;;;;;;;;;;;;;
2019/05/29 00:51:48;;;;;;;11.1;9.8;;;;;;;;;;;;;
2019/05/29 00:54:13;;;;;;;10.2;9.2;;;;;;;;;;;;;
2019/05/29 00:56:39;;;;;;;10.9;9.9;;;;;;;;;;;;;
2019/05/29 00:59:04;;;;;;;9.8;8.8;;;;;;;;;;;;;
2019/05/29 01:01:29;;;;;;;11;9.7;;;;;;;;;;;;;
2019/05/29 01:03:54;;;;;;;11.5;10.1;;;;;;;;;;;;;
2019/05/29 01:06:19;;;;;;;9.9;8.9;;;;;;;;;;;;;
2019/05/29 01:08:44;;;;;;;12.4;10.7;;;;;;;;;;;;;
2019/05/29 01:11:11;;;;;;;11.6;10.4;;;;;;;;;;;;;
2019/05/29 01:13:36;;;;;;;11.8;10.6;;;;;;;;;;;;;
2019/05/29 01:16:02;;;;;;;11.7;10.5;;;;;;;;;;;;;
2019/05/29 01:18:27;;;;;;;12.5;11.1;;;;;;;;;;;;;
2019/05/29 01:20:53;;;;;;;10.2;9.2;;;;;;;;;;;;;
2019/05/29 01:23:19;;;;;;;11.5;10.3;;;;;;;;;;;;;
2019/05/29 01:25:45;;;;;;;10.8;9.2;;;;;;;;;;;;;
2019/05/29 01:28:10;;;;;;;11.6;9.9;;;;;;;;;;;;;
2019/05/29 01:30:36;;;;;;;12.6;10.2;;;;;;;;;;;;;
2019/05/29 01:33:02;;;;;;;10.9;9.8;;;;;;;;;;;;;
2019/05/29 01:35:28;;;;;;;12.4;11.1;;;;;;;;;;;;;
2019/05/29 01:37:53;;;;;;;11.9;10.1;;;;;;;;;;;;;
2019/05/29 01:40:18;;;;;;;11.5;10.2;;;;;;;;;;;;;
2019/05/29 01:42:47;;;;;;;11.8;10.6;;;;;;;;;;;;;
2019/05/29 01:45:12;;;;;;;11;9.9;;;;;;;;;;;;;
2019/05/29 01:47:37;;;;;;;11.9;10.1;;;;;;;;;;;;;
2019/05/29 01:50:02;;;;;;;13.2;11.1;;;;;;;;;;;;;
2019/05/29 01:52:29;;;;;;;11.4;10.1;;;;;;;;;;;;;
2019/05/29 01:54:53;;;;;;;12.4;11.1;;;;;;;;;;;;;
2019/05/29 01:57:19;;;;;;;13.9;10.5;;;;;;;;;;;;;
2019/05/29 01:59:49;;;;;;;12.8;11.2;;;;;;;;;;;;;
2019/05/29 02:02:19;;;;;;;11.2;10;;;;;;;;;;;;;
2019/05/29 02:04:43;;;;;;;12.2;9.9;;;;;;;;;;;;;
2019/05/29 02:07:09;;;;;;;11.2;10.1;;;;;;;;;;;;;
2019/05/29 02:09:34;;;;;;;12.1;10.4;;;;;;;;;;;;;
2019/05/29 02:11:59;;;;;;;12.7;11.4;;;;;;;;;;;;;
2019/05/29 02:14:25;;;;;;;12.2;10.9;;;;;;;;;;;;;
2019/05/29 02:16:50;;;;;;;11.7;10.5;;;;;;;;;;;;;
2019/05/29 02:19:19;;;;;;;12.9;11.7;;;;;;;;;;;;;
2019/05/29 02:21:44;;;;;;;11.4;10;;;;;;;;;;;;;
2019/05/29 02:24:09;;;;;;;13;11.6;;;;;;;;;;;;;
2019/05/29 02:26:34;;;;;;;12.9;10.9;;;;;;;;;;;;;
2019/05/29 02:28:59;;;;;;;12.6;11.3;;;;;;;;;;;;;
2019/05/29 02:31:25;;;;;;;13.6;11.4;;;;;;;;;;;;;
2019/05/29 02:33:54;;;;;;;12.5;11.2;;;;;;;;;;;;;
2019/05/29 02:36:19;;;;;;;12.3;11;;;;;;;;;;;;;
2019/05/29 02:38:45;;;;;;;13.1;11.1;;;;;;;;;;;;;
2019/05/29 02:41:09;;;;;;;14.7;13.2;;;;;;;;;;;;;
2019/05/29 02:43:36;;;;;;;13.3;12;;;;;;;;;;;;;
2019/05/29 02:46:01;;;;;;;12.9;11.6;;;;;;;;;;;;;
2019/05/29 02:48:26;;;;;;;14.3;12.8;;;;;;;;;;;;;
2019/05/29 02:50:51;;;;;;;13.4;11;;;;;;;;;;;;;
2019/05/29 02:53:16;;;;;;;12.6;11;;;;;;;;;;;;;
2019/05/29 02:55:41;;;;;;;14.3;12;;;;;;;;;;;;;
2019/05/29 02:58:06;;;;;;;13.7;12;;;;;;;;;;;;;
2019/05/29 03:00:35;;;;;;;15.6;12.9;;;;;;;;;;;;;
2019/05/29 03:03:00;;;;;;;14.1;12.6;;;;;;;;;;;;;
2019/05/29 03:05:26;;;;;;;13.9;12.5;;;;;;;;;;;;;
2019/05/29 03:07:51;;;;;;;14.2;12.7;;;;;;;;;;;;;
2019/05/29 03:10:16;;;;;;;12.8;11.5;;;;;;;;;;;;;
2019/05/29 03:12:41;;;;;;;15;12.8;;;;;;;;;;;;;
2019/05/29 03:15:13;;;;;;;13.9;11.8;;;;;;;;;;;;;
2019/05/29 03:17:44;;;;;;;14.6;12.2;;;;;;;;;;;;;
2019/05/29 03:20:12;;;;;;;12.4;11.1;;;;;;;;;;;;;
2019/05/29 03:22:37;;;;;;;13.9;12.5;;;;;;;;;;;;;
2019/05/29 03:25:02;;;;;;;14.3;12.4;;;;;;;;;;;;;
2019/05/29 03:27:27;;;;;;;12.6;11.3;;;;;;;;;;;;;
2019/05/29 03:29:52;;;;;;;11.3;10.1;;;;;;;;;;;;;
2019/05/29 03:32:19;;;;;;;14;11.2;;;;;;;;;;;;;
2019/05/29 03:34:44;;;;;;;13;11.1;;;;;;;;;;;;;
2019/05/29 03:37:09;;;;;;;13.8;11.4;;;;;;;;;;;;;
2019/05/29 03:39:34;;;;;;;13.8;11.9;;;;;;;;;;;;;
2019/05/29 03:41:59;;;;;;;12.6;10.8;;;;;;;;;;;;;
2019/05/29 03:44:25;;;;;;;14.8;12.5;;;;;;;;;;;;;
2019/05/29 03:46:50;;;;;;;13.3;11.9;;;;;;;;;;;;;
2019/05/29 03:49:15;;;;;;;13.1;11.8;;;;;;;;;;;;;
2019/05/29 03:51:41;;;;;;;12.9;10.8;;;;;;;;;;;;;
2019/05/29 03:54:06;;;;;;;12.8;11.3;;;;;;;;;;;;;
2019/05/29 03:56:32;;;;;;;15.2;12.4;;;;;;;;;;;;;
2019/05/29 03:58:58;;;;;;;13.1;11.8;;;;;;;;;;;;;
2019/05/29 04:02:48;;;;;;;13;11.6;;;;;;;9.7;94.03027;959.1772;;;;
2019/05/29 11:50:58;;;;;;;15.3;13.8;;;;;;;12.65;84.3877;962.8323;;;;
2019/05/29 11:53:33;;;;;;;14.8;13.3;;;;;;;12.69;83.29492;962.8964;;;;
2019/05/29 11:56:02;;;;;;;16.1;14.4;;;;;;;12.84;83.4502;962.8719;;;;
2019/05/29 11:58:31;;;;;;;12.6;11.4;;;;;;;13.34;80.67773;962.8766;;;;
2019/05/29 12:01:04;;;;;;;13.3;11.8;;;;;;;13.36;82.8291;962.8965;;;;
2019/05/29 12:03:31;;;;;;;13.1;11.8;;;;;;;13.49;81.89063;962.9374;;;;
2019/05/29 12:06:20;;;;;;;11.9;10.8;;;;;;;13.51;79.64063;962.8707;;;;
2019/05/29 12:08:52;;;;;;;13;11.7;;;;;;;13.36;79.26367;962.8965;;;;
2019/05/29 12:11:22;;;;;;;11.7;10.6;;;;;;;13.47;79.59863;962.9135;;;;
2019/05/29 12:13:53;;;;;;;10.8;9.8;;;;;;;13.73;77.73828;962.902;;;;
2019/05/29 12:16:15;;;;;;;11.3;10.3;;;;;;;13.92;76.33105;962.8842;;;;
2019/05/29 12:18:59;;;;;;;9.1;8.2;;;;;;;14.01;72.08008;962.8223;;;;
2019/05/29 12:21:26;;;;;;;11.1;10.1;;;;;;;14.1;74.8623;962.7958;;;;
2019/05/29 12:24:04;;;;;;;10.7;9.7;;;;;;;14.17;73.1875;962.8218;;;;
2019/05/29 12:26:35;;;;;;;10.1;9.1;;;;;;;14.76;72.77148;962.7793;;;;
2019/05/29 12:28:55;;;;;;;10.2;9.2;;;;;;;14.79;70.72754;962.7758;;;;
2019/05/29 12:31:44;;;;;;;8.7;7.9;;;;;;;15.45;68.08008;962.7403;;;;
2019/05/29 12:34:18;;;;;;;9.2;8.3;;;;;;;15.12;68.43652;962.8359;;;;
2019/05/29 12:36:56;;;;;;;10.5;9.5;;;;;;;15.22;70.01465;962.7506;;;;
2019/05/29 12:39:30;;;;;;;9.6;8.7;;;;;;;15.28;68.69531;962.7733;;;;
2019/05/29 12:41:58;;;;;;;9.3;8.4;;;;;;;16.02;68.4375;962.7957;;;;
2019/05/29 12:44:21;;;;;;;9.4;8.4;;;;;;;15.66;63.7002;962.7234;;;;
2019/05/29 12:49:14;;;;;;;7.2;6.5;;;;;;;16.99;64.37305;962.8131;;;;
2019/05/29 12:51:53;;;;;;;5.7;5.2;;;;;;;16.4;58.05273;962.7664;;;;
2019/05/29 12:54:20;;;;;;;5.4;4.9;;;;;;;17.12;56.34473;962.7498;;;;
2019/05/29 12:56:48;;;;;;;5.9;4.8;;;;;;;17.01;58.19336;962.7715;;;;
2019/05/29 12:59:16;;;;;;;6.3;4.6;;;;;;;17.88;57.05273;962.7861;;;;
2019/05/29 13:01:43;;;;;;;5.3;4.8;;;;;;;18.17;53.29688;962.77;;;;
2019/05/29 13:04:08;;;;;;;5.3;4.8;;;;;;;18.1;52.90137;962.7789;;;;
2019/05/29 13:06:38;;;;;;;5.3;4.2;;;;;;;17.62;54.23926;962.7629;;;;
2019/05/29 13:09:05;;;;;;;4.2;3.8;;;;;;;18.38;52.35938;962.8236;;;;
2019/05/29 13:11:29;;;;;;;4.9;4.4;;;;;;;18.51;51.71777;962.7505;;;;
2019/05/29 13:13:57;;;;;;;5.5;4.6;;;;;;;17.89;52.26563;962.7544;;;;
2019/05/29 13:16:25;;;;;;;5.7;4.8;;;;;;;17.17;55.16699;962.8116;;;;
2019/05/29 13:18:51;;;;;;;4.7;4.3;;;;;;;17.23;54.67188;962.7612;;;;
2019/05/29 13:21:18;;;;;;;5.8;4.6;;;;;;;16.89;54.92188;962.8049;;;;
2019/05/29 13:23:52;;;;;;;5.3;4.8;;;;;;;16.46;55.61719;962.8144;;;;
2019/05/29 13:26:32;;;;;;;5.4;4.9;;;;;;;16.46;57.35938;962.7766;;;;
2019/05/29 13:28:59;;;;;;;5.8;5.2;;;;;;;15.92;57.80176;962.8218;;;;
2019/05/29 13:31:32;;;;;;;4.8;4.4;;;;;;;15.51;60.2002;962.8658;;;;
2019/05/29 13:34:05;;;;;;;7.2;6.5;;;;;;;15.26;62.21875;962.7927;;;;
2019/05/29 13:36:30;;;;;;;6.8;6.2;;;;;;;14.84;62.92773;962.8339;;;;
2019/05/29 13:39:04;;;;;;;6.4;5.8;;;;;;;14.78;62.58105;962.8369;;;;
2019/05/29 13:41:32;;;;;;;6.2;5.6;;;;;;;14.58;64.82422;962.8603;;;;
2019/05/29 13:44:13;;;;;;;6.2;5.6;;;;;;;14.47;65.67969;962.9327;;;;
2019/05/29 13:46:37;;;;;;;6.6;6;;;;;;;14.37;66.1543;962.9789;;;;
2019/05/29 13:49:03;;;;;;;7.9;5.1;;;;;;;14.32;64.73926;962.9585;;;;
2019/05/29 13:51:29;;;;;;;5.7;5.1;;;;;;;14.1;67.12598;962.9711;;;;
2019/05/29 13:53:54;;;;;;;5.6;4.9;;;;;;;14.06;66.1416;962.9506;;;;
2019/05/29 13:56:24;;;;;;;5.5;5;;;;;;;13.78;65.80859;963.0385;;;;
2019/05/29 13:58:59;;;;;;;7.3;4.7;;;;;;;13.92;65.2959;963.0901;;;;
2019/05/29 14:01:25;;;;;;;6.5;4.8;;;;;;;13.85;67.20508;963.175;;;;
2019/05/29 14:03:49;;;;;;;6.2;4.8;;;;;;;13.83;67.01465;963.1995;;;;
2019/05/29 14:06:14;;;;;;;5.8;5;;;;;;;13.74;68.55664;963.2742;;;;
2019/05/29 14:08:47;;;;;;;7;5.5;;;;;;;13.68;70.08301;963.3317;;;;
2019/05/29 14:11:13;;;;;;;6.3;5.2;;;;;;;13.6;72.06836;963.3411;;;;
2019/05/29 14:13:38;;;;;;;5.5;5;;;;;;;13.75;72.24512;963.3535;;;;
2019/05/29 14:16:04;;;;;;;6.3;4.8;;;;;;;13.88;72.17383;963.3992;;;;
2019/05/29 14:18:45;;;;;;;5.5;4.5;;;;;;;13.79;73.45996;963.4442;;;;
2019/05/29 14:21:15;;;;;;;6.6;4.8;;;;;;;13.81;74.38086;963.4592;;;;
2019/05/29 14:23:47;;;;;;;4.9;4.4;;;;;;;14.12;71.88672;963.5009;;;;
2019/05/29 14:26:12;;;;;;;6.2;4.1;;;;;;;14.03;73.70996;963.5153;;;;
2019/05/29 14:28:43;;;;;;;4.5;3.6;;;;;;;13.96;72.41797;963.5282;;;;
2019/05/29 14:31:16;;;;;;;5.4;4.1;;;;;;;13.8;72.99805;963.5581;;;;
2019/05/29 14:33:45;;;;;;;4.9;4.4;;;;;;;13.8;74.83301;963.5204;;;;
2019/05/29 14:36:11;;;;;;;5.5;4.2;;;;;;;13.7;75.30469;963.5871;;;;
2019/05/29 14:38:39;;;;;;;7;4.6;;;;;;;13.69;77.12793;963.6227;;;;
2019/05/29 14:42:14;;;;;;;5.6;4.7;;;;;;;13.51;76.57324;963.655;;;;
2019/05/29 14:44:45;;;;;;;5.9;4.8;;;;;;;13.38;76.98047;963.6605;;;;
2019/05/29 14:47:15;;;;;;;5.7;4.6;;;;;;;13.23;76.69824;963.6555;;;;
2019/05/29 14:49:50;;;;;;;4.8;4.3;;;;;;;13.29;75.33789;963.6241;;;;
2019/05/29 14:52:17;;;;;;;6.7;4.9;;;;;;;13.25;77.01563;963.7014;;;;
2019/05/29 14:54:48;;;;;;;5.2;4.6;;;;;;;13.31;78.08301;963.6511;;;;
2019/05/29 14:57:14;;;;;;;6.4;4.5;;;;;;;13.38;75.62012;963.6526;;;;
2019/05/29 14:59:42;;;;;;;4.9;4.4;;;;;;;13.43;77.78906;963.7247;;;;
2019/05/29 15:02:06;;;;;;;6.3;4.4;;;;;;;13.38;73.1709;963.7249;;;;
2019/05/29 15:04:34;;;;;;;6;4.4;;;;;;;13.44;74.14453;963.7277;;;;
2019/05/29 15:06:59;;;;;;;5.4;4.4;;;;;;;13.4;74.19629;963.8259;;;;
2019/05/29 15:09:28;;;;;;;4.6;4;;;;;;;13.58;73.77344;963.7759;;;;
2019/05/29 15:12:00;;;;;;;6.2;4.7;;;;;;;13.61;73.93066;963.7894;;;;
2019/05/29 15:14:37;;;;;;;4.9;4.1;;;;;;;13.83;70.83984;963.817;;;;
2019/05/29 15:17:17;;;;;;;4.8;4.3;;;;;;;13.79;71.28613;963.8212;;;;
2019/05/29 15:19:42;;;;;;;4.8;3.9;;;;;;;13.71;71.56348;963.8692;;;;
2019/05/29 15:22:11;;;;;;;5.4;3.8;;;;;;;13.89;71.2666;963.8961;;;;
2019/05/29 15:24:36;;;;;;;8.2;6.3;;;;;;;13.88;71.56738;963.9484;;;;
2019/05/29 15:27:01;;;;;;;4.4;4;;;;;;;13.63;71.81738;963.9894;;;;
2019/05/29 15:29:33;;;;;;;5.2;4;;;;;;;13.7;71.73633;963.973;;;;
2019/05/29 15:32:04;;;;;;;6;3.8;;;;;;;14.01;72.125;963.9596;;;;
2019/05/29 15:34:32;;;;;;;6.2;4.3;;;;;;;14.05;70.86328;964.0068;;;;
2019/05/29 15:37:02;;;;;;;5.2;4.1;;;;;;;14.07;71.90234;963.9872;;;;
2019/05/29 15:39:42;;;;;;;5;3.9;;;;;;;14.19;71.92285;964.0289;;;;
2019/05/29 15:42:07;;;;;;;6.3;3.9;;;;;;;14.07;72.22852;964.0773;;;;
2019/05/29 15:44:32;;;;;;;6;4.1;;;;;;;14.19;70.13965;964.0556;;;;
2019/05/29 15:47:14;;;;;;;5.5;4.1;;;;;;;14.25;69.83691;964.0737;;;;
2019/05/29 15:49:47;;;;;;;5.1;4.3;;;;;;;14.11;70.10547;964.0553;;;;
2019/05/29 15:52:17;;;;;;;5.9;4.1;;;;;;;14.32;67.77539;964.1092;;;;
2019/05/29 15:54:43;;;;;;;5.2;3.8;;;;;;;14.09;70.43945;964.1392;;;;
2019/05/29 15:57:13;;;;;;;3.8;3.5;;;;;;;14;69.38965;964.1575;;;;
2019/05/29 15:59:38;;;;;;;4.2;3.7;;;;;;;14.03;70.91797;964.2321;;;;
2019/05/29 16:02:13;;;;;;;3.7;3.4;;;;;;;14.01;69.83496;964.2121;;;;
2019/05/29 16:04:39;;;;;;;3.7;3.3;;;;;;;14.33;69.4082;964.1847;;;;
2019/05/29 16:07:14;;;;;;;4.9;3.9;;;;;;;14.4;69.89648;964.2156;;;;
2019/05/29 16:09:42;;;;;;;4.7;3.6;;;;;;;14.14;70.09766;964.2371;;;;
2019/05/29 16:12:08;;;;;;;6.4;4.1;;;;;;;14.09;69.62402;964.2214;;;;
2019/05/29 16:14:32;;;;;;;4.4;4;;;;;;;14.22;69.00488;964.3354;;;;
2019/05/29 16:17:01;;;;;;;3.9;3.2;;;;;;;14.43;68.16602;964.3239;;;;
2019/05/29 16:19:26;;;;;;;4.8;3.3;;;;;;;14.42;68.45605;964.3466;;;;
2019/05/29 16:21:51;;;;;;;4.3;3.1;;;;;;;14.28;68.11914;964.3582;;;;
2019/05/29 16:24:22;;;;;;;4.9;3.2;;;;;;;14.33;68.47656;964.3906;;;;
2019/05/29 16:26:48;;;;;;;5.3;3.2;;;;;;;14.03;69.64844;964.3825;;;;
2019/05/29 16:29:27;;;;;;;3.6;2.8;;;;;;;13.88;68.98828;964.3898;;;;
2019/05/29 16:31:53;;;;;;;3.2;2.9;;;;;;;13.66;69.21875;964.4233;;;;
2019/05/29 16:34:18;;;;;;;3.3;2.7;;;;;;;13.82;69.23242;964.4531;;;;
2019/05/29 16:36:53;;;;;;;3.8;2.6;;;;;;;13.63;71.21289;964.486;;;;
2019/05/29 16:39:24;;;;;;;3.3;2.9;;;;;;;13.58;70.01855;964.5048;;;;
2019/05/29 16:42:04;;;;;;;3.7;2.9;;;;;;;13.45;71.7998;964.5705;;;;
2019/05/29 16:44:37;;;;;;;3.5;3.1;;;;;;;13.44;72.55273;964.6534;;;;
2019/05/29 16:47:06;;;;;;;3.9;3.1;;;;;;;13.26;73.54492;964.7239;;;;
2019/05/29 16:49:31;;;;;;;4.1;3.2;;;;;;;13.3;74.67871;964.7535;;;;
2019/05/29 16:52:05;;;;;;;3.9;3.5;;;;;;;13.14;78.14551;964.7358;;;;
2019/05/29 16:54:45;;;;;;;4;3.6;;;;;;;12.78;80.01855;964.7535;;;;
2019/05/29 16:57:10;;;;;;;3.9;3.5;;;;;;;12.7;79.87598;964.7358;;;;
2019/05/29 16:59:35;;;;;;;5.1;4;;;;;;;12.53;80.06348;964.7547;;;;
2019/05/29 17:02:00;;;;;;;5.7;4.2;;;;;;;12.2;85.08691;964.7504;;;;
2019/05/29 17:04:25;;;;;;;6.8;6;;;;;;;12.09;88.07715;964.8089;;;;
2019/05/29 17:06:51;;;;;;;5.5;5;;;;;;;12.08;85.91016;964.7966;;;;
2019/05/29 17:09:16;;;;;;;8;7.2;;;;;;;11.91;89.26563;964.8917;;;;
2019/05/29 17:11:51;;;;;;;8.2;7.4;;;;;;;11.81;89.81445;964.8879;;;;
2019/05/29 17:14:33;;;;;;;9.5;8.5;;;;;;;11.84;91.91504;964.9069;;;;
2019/05/29 17:16:59;;;;;;;10.3;8.7;;;;;;;11.8;91.54688;964.8856;;;;
2019/05/29 17:19:24;;;;;;;8.3;7.5;;;;;;;11.7;91.50488;964.9975;;;;
2019/05/29 17:21:49;;;;;;;9.5;8.6;;;;;;;11.72;93.10352;964.983;;;;
2019/05/29 17:24:14;;;;;;;7.6;6.8;;;;;;;11.78;89.16113;964.9938;;;;
2019/05/29 17:26:40;;;;;;;8.8;7.9;;;;;;;11.72;92.61719;965.0472;;;;
2019/05/29 17:29:05;;;;;;;14.9;13.3;;;;;;;11.66;95.32422;965.0615;;;;
2019/05/29 17:31:37;;;;;;;11.5;10.4;;;;;;;11.64;93.90723;965.0212;;;;
2019/05/29 17:34:16;;;;;;;11.3;10.3;;;;;;;11.61;93.94922;964.9852;;;;
2019/05/29 17:36:40;;;;;;;10.4;9.5;;;;;;;11.55;92.69824;965.1237;;;;
2019/05/29 17:39:07;;;;;;;8.1;7.1;;;;;;;11.57;92.03125;965.1052;;;;
2019/05/29 17:41:32;;;;;;;8.9;8;;;;;;;11.52;93.83789;965.1956;;;;
2019/05/29 17:44:05;;;;;;;9.1;8.3;;;;;;;11.55;93.53125;965.1498;;;;
2019/05/29 17:46:40;;;;;;;9.2;8.4;;;;;;;11.67;94.02832;965.168;;;;
2019/05/29 17:49:06;;;;;;;10.8;9.8;;;;;;;11.77;94.74609;965.1747;;;;
2019/05/29 17:51:31;;;;;;;13.8;12.5;;;;;;;11.68;95.83691;965.1752;;;;
2019/05/29 17:53:56;;;;;;;13.7;12.5;;;;;;;11.74;96.08008;965.2717;;;;
2019/05/29 17:56:22;;;;;;;13.7;12.4;;;;;;;11.71;96.03027;965.2443;;;;
2019/05/29 17:58:47;;;;;;;12.8;11.7;;;;;;;11.8;95.78223;965.3;;;;
2019/05/29 18:01:14;;;;;;;14;12.7;;;;;;;11.75;96.14258;965.3519;;;;
2019/05/29 18:03:39;;;;;;;12;10.7;;;;;;;11.78;94.58594;965.3666;;;;
2019/05/29 18:06:06;;;;;;;11.7;10.6;;;;;;;11.83;94.35449;965.4127;;;;
2019/05/29 18:08:33;;;;;;;7.7;7;;;;;;;12;92.2959;965.4213;;;;
2019/05/29 18:11:11;;;;;;;8.4;7.6;;;;;;;11.89;93.38477;965.5129;;;;
2019/05/29 18:13:36;;;;;;;9.5;8.5;;;;;;;11.85;93.60645;965.4959;;;;
2019/05/29 18:16:02;;;;;;;7.6;6.8;;;;;;;12;93.63965;965.5062;;;;
2019/05/29 18:18:27;;;;;;;7.1;6.2;;;;;;;12.09;89.74609;965.5739;;;;
2019/05/29 18:20:54;;;;;;;8.5;7.7;;;;;;;11.97;92.82324;965.5477;;;;
2019/05/29 18:23:29;;;;;;;8.2;7.5;;;;;;;12.03;92.46387;965.64;;;;
2019/05/29 18:26:10;;;;;;;6.8;6.2;;;;;;;11.97;91.22559;965.6287;;;;
2019/05/29 18:28:35;;;;;;;8.2;7.4;;;;;;;11.87;92.4873;965.7166;;;;
2019/05/29 18:31:04;;;;;;;7.6;6.9;;;;;;;11.81;92.51074;965.7431;;;;
2019/05/29 18:33:29;;;;;;;7.9;7.3;;;;;;;11.65;94.32715;965.8323;;;;
2019/05/29 18:35:54;;;;;;;10.5;9.5;;;;;;;11.65;95.3457;965.7762;;;;
2019/05/29 18:38:20;;;;;;;9.5;8.7;;;;;;;11.54;95.28516;965.8092;;;;
2019/05/29 18:40:48;;;;;;;10;9.2;;;;;;;11.47;94.47363;965.7601;;;;
2019/05/29 18:43:17;;;;;;;9.4;8.6;;;;;;;11.61;93.93652;965.8193;;;;
2019/05/29 18:45:42;;;;;;;9.9;9;;;;;;;11.58;93.43262;965.8262;;;;
2019/05/29 18:48:08;;;;;;;10.3;9.5;;;;;;;11.53;94.79785;965.9077;;;;
2019/05/29 18:50:36;;;;;;;11.7;10.7;;;;;;;11.42;94.66992;965.9272;;;;
2019/05/29 18:53:04;;;;;;;12.9;10.9;;;;;;;11.27;95.22656;965.8693;;;;
2019/05/29 18:55:30;;;;;;;11.5;10.3;;;;;;;11.29;94.72168;965.9064;;;;
2019/05/29 18:57:54;;;;;;;13.1;11.9;;;;;;;11.14;95.70508;965.9124;;;;
2019/05/29 19:00:20;;;;;;;12.3;11.2;;;;;;;11.24;96.44531;965.9363;;;;
2019/05/29 19:02:45;;;;;;;11.5;10.5;;;;;;;11.27;95.53809;965.9807;;;;
2019/05/29 19:05:11;;;;;;;11.7;10.6;;;;;;;11.18;95.44922;966.0408;;;;
2019/05/29 19:07:36;;;;;;;14.7;13.2;;;;;;;11.1;96.06738;966.1042;;;;
2019/05/29 19:10:08;;;;;;;12.9;11.7;;;;;;;11.11;96.01367;966.0941;;;;
2019/05/29 19:12:36;;;;;;;12.5;11.4;;;;;;;11.15;96.8877;966.1286;;;;
2019/05/29 19:15:01;;;;;;;12.6;11.5;;;;;;;11.18;95.68066;966.1945;;;;
2019/05/29 19:17:27;;;;;;;13;11.8;;;;;;;11.08;96.375;966.2388;;;;
2019/05/29 19:19:56;;;;;;;12.6;11.5;;;;;;;11.05;96.99121;966.28;;;;
2019/05/29 19:22:24;;;;;;;13.3;12.1;;;;;;;11.01;96.3457;966.3437;;;;
2019/05/29 19:24:53;;;;;;;16.8;15.1;;;;;;;10.84;96.41406;966.4662;;;;
2019/05/29 19:27:26;;;;;;;14.9;13.5;;;;;;;10.86;96.92578;966.473;;;;
2019/05/29 19:29:50;;;;;;;15.8;14.2;;;;;;;10.91;97.11133;966.5919;;;;
2019/05/29 19:32:28;;;;;;;18;16.3;;;;;;;10.87;97.58594;966.5874;;;;
2019/05/29 19:35:09;;;;;;;22.2;20.2;;;;;;;10.93;98.53516;966.6711;;;;
2019/05/29 19:37:34;;;;;;;20.6;18.7;;;;;;;11;97.75488;966.7159;;;;
2019/05/29 19:40:11;;;;;;;18.4;16.7;;;;;;;11.01;97.53711;966.7062;;;;
2019/05/29 19:42:54;;;;;;;13.3;12;;;;;;;11.06;96.98145;966.7483;;;;
2019/05/29 19:45:19;;;;;;;18;16.5;;;;;;;11.01;97.35254;966.7575;;;;
2019/05/29 19:47:54;;;;;;;14.3;12.9;;;;;;;11.08;97.28809;966.7422;;;;
2019/05/29 19:50:31;;;;;;;14.6;13.3;;;;;;;11.07;97.00879;966.7903;;;;
2019/05/29 19:52:56;;;;;;;12.9;11.8;;;;;;;11.01;96.97168;966.8472;;;;
2019/05/29 19:55:27;;;;;;;13.2;12.1;;;;;;;10.94;97.52344;966.8067;;;;
2019/05/29 19:58:18;;;;;;;14.4;13.2;;;;;;;10.99;96.30859;966.8959;;;;
2019/05/29 20:00:47;;;;;;;13.4;12.3;;;;;;;11.06;96.10547;966.9356;;;;
2019/05/29 20:03:20;;;;;;;14.7;13.4;;;;;;;11.05;96.55371;966.9628;;;;
2019/05/29 20:05:49;;;;;;;18.2;16.6;;;;;;;11.05;97.00488;966.9708;;;;
2019/05/29 20:08:14;;;;;;;18.2;16.6;;;;;;;11.03;97.28711;966.9564;;;;
2019/05/29 20:10:40;;;;;;;16.7;15.4;;;;;;;11.13;96.42188;967.0276;;;;
2019/05/29 20:13:05;;;;;;;22.8;20.6;;;;;;;10.99;97.49902;967.0881;;;;
2019/05/29 20:15:39;;;;;;;20.1;18.2;;;;;;;11.1;97.00293;967.1033;;;;
2019/05/29 20:18:04;;;;;;;16.6;15.2;;;;;;;11.16;96.01172;967.1192;;;;
2019/05/29 20:20:30;;;;;;;16.1;14.8;;;;;;;11.14;96.52539;967.1166;;;;
2019/05/29 20:22:57;;;;;;;18.9;17.3;;;;;;;11.06;96.26758;967.1278;;;;
2019/05/29 20:25:22;;;;;;;19.8;18.1;;;;;;;11.09;96.68945;967.1513;;;;
2019/05/29 20:27:48;;;;;;;18;16.4;;;;;;;11.15;96.25;967.1158;;;;
2019/05/29 20:30:28;;;;;;;18.2;16.6;;;;;;;11.07;96.78711;967.1577;;;;
2019/05/29 20:32:54;;;;;;;18.5;16.9;;;;;;;10.98;96.65137;967.1105;;;;
2019/05/29 20:35:19;;;;;;;21.8;19.8;;;;;;;10.91;97.50391;967.2104;;;;
2019/05/29 20:37:49;;;;;;;24.1;21.8;;;;;;;10.84;97.71875;967.2256;;;;
2019/05/29 20:40:14;;;;;;;20;18.3;;;;;;;10.84;98.87305;967.26;;;;
2019/05/29 20:42:40;;;;;;;22.9;20.8;;;;;;;10.75;99.29102;967.3663;;;;
2019/05/29 20:45:08;;;;;;;18.8;17.1;;;;;;;10.93;98.62988;967.2684;;;;
2019/05/29 20:47:34;;;;;;;17.8;16.1;;;;;;;10.9;97.32617;967.2849;;;;
2019/05/29 20:49:59;;;;;;;16.1;14.7;;;;;;;10.89;96.4834;967.3152;;;;
2019/05/29 20:52:26;;;;;;;16.2;14.7;;;;;;;10.85;97.25879;967.4084;;;;
2019/05/29 20:54:51;;;;;;;17.3;15.8;;;;;;;10.82;96.75391;967.416;;;;
2019/05/29 20:57:26;;;;;;;19.2;17.5;;;;;;;10.75;97.65234;967.4431;;;;
2019/05/29 20:59:55;;;;;;;19.5;17.8;;;;;;;10.71;97.54004;967.3787;;;;
2019/05/29 21:02:20;;;;;;;18.2;16.6;;;;;;;10.69;97.83398;967.4922;;;;
2019/05/29 21:04:46;;;;;;;21;19.2;;;;;;;10.67;98.10742;967.5025;;;;
2019/05/29 21:07:22;;;;;;;19.8;17.9;;;;;;;10.64;98.44727;967.522;;;;
2019/05/29 21:09:47;;;;;;;21.5;19.6;;;;;;;10.71;98.16309;967.5795;;;;
2019/05/29 21:12:14;;;;;;;25.1;22.7;;;;;;;10.66;98.7627;967.5845;;;;
2019/05/29 21:14:46;;;;;;;26;23.7;;;;;;;10.56;99.09863;967.5419;;;;
2019/05/29 21:17:11;;;;;;;21.7;19.8;;;;;;;10.55;98.99219;967.509;;;;
2019/05/29 21:19:36;;;;;;;22;20;;;;;;;10.53;99.05566;967.5958;;;;
2019/05/29 21:22:02;;;;;;;23.7;21.5;;;;;;;10.48;99.12402;967.6264;;;;
2019/05/29 21:24:27;;;;;;;22.5;20.3;;;;;;;10.55;98.27734;967.641;;;;
2019/05/29 21:26:55;;;;;;;24;21.6;;;;;;;10.52;99.19238;967.6357;;;;
2019/05/29 21:29:31;;;;;;;23.9;21.8;;;;;;;10.45;99.13184;967.6247;;;;
2019/05/29 21:32:04;;;;;;;22;20;;;;;;;10.38;99.78223;967.5933;;;;
2019/05/29 21:34:29;;;;;;;25.1;22.7;;;;;;;10.4;99.56738;967.6085;;;;
2019/05/29 21:36:54;;;;;;;23.5;21.3;;;;;;;10.31;99.74414;967.6205;;;;
2019/05/29 21:39:21;;;;;;;24.5;22.3;;;;;;;10.24;99.95898;967.6783;;;;
2019/05/29 21:41:46;;;;;;;28.8;26.1;;;;;;;10.14;100;967.6315;;;;
2019/05/29 21:44:11;;;;;;;29;26.3;;;;;;;10.18;100;967.7175;;;;
2019/05/29 21:46:53;;;;;;;34;30.6;;;;;;;10.16;100;967.7107;;;;
2019/05/29 21:49:29;;;;;;;28.8;26.1;;;;;;;10.21;100;967.7833;;;;
2019/05/29 21:51:54;;;;;;;29.4;26.5;;;;;;;10.24;100;967.7335;;;;
2019/05/29 21:54:19;;;;;;;28.4;25.8;;;;;;;10.33;100;967.8189;;;;
2019/05/29 21:57:01;;;;;;;27.7;25.1;;;;;;;10.41;100;967.8208;;;;
2019/05/29 21:59:41;;;;;;;26.2;23.9;;;;;;;10.56;100;967.7858;;;;
2019/05/29 22:02:12;;;;;;;26.2;23.7;;;;;;;10.69;99.23047;967.8842;;;;
2019/05/29 22:04:38;;;;;;;21.8;19.8;;;;;;;10.68;97.70508;967.8602;;;;
2019/05/29 22:07:02;;;;;;;22.1;20;;;;;;;10.63;98.06445;967.9028;;;;
2019/05/29 22:09:28;;;;;;;22;19.9;;;;;;;10.78;97.4043;967.8636;;;;
2019/05/29 22:12:08;;;;;;;25.8;23.4;;;;;;;10.8;98.46094;967.9041;;;;
2019/05/29 22:14:33;;;;;;;19.7;18;;;;;;;10.71;97.72266;967.8699;;;;
2019/05/29 22:17:23;;;;;;;22.7;20.7;;;;;;;10.68;98.12305;967.8553;;;;
2019/05/29 22:19:56;;;;;;;23.2;21.2;;;;;;;10.67;98.71875;967.8904;;;;
2019/05/29 22:22:21;;;;;;;27.1;24.6;;;;;;;10.82;98.77441;967.9409;;;;
2019/05/29 22:24:54;;;;;;;34.1;30.7;;;;;;;10.72;99.38672;967.9758;;;;
2019/05/29 22:27:36;;;;;;;28.1;25.5;;;;;;;10.68;99.64453;967.937;;;;
2019/05/29 22:30:07;;;;;;;22.9;20.6;;;;;;;10.74;98.73535;967.9432;;;;
2019/05/29 22:32:33;;;;;;;21;19.1;;;;;;;10.61;97.71191;967.9216;;;;
2019/05/29 22:34:58;;;;;;;19.1;17.4;;;;;;;10.6;97.56055;967.9952;;;;
2019/05/29 22:37:33;;;;;;;20.6;18.6;;;;;;;10.57;97.86523;967.9467;;;;
2019/05/29 22:40:06;;;;;;;19;17.2;;;;;;;10.54;97.76758;967.9321;;;;
2019/05/29 22:42:32;;;;;;;21.3;19.4;;;;;;;10.41;98.29297;967.9441;;;;
2019/05/29 22:45:03;;;;;;;20.2;18.4;;;;;;;10.36;98.47461;967.8978;;;;
2019/05/29 22:47:29;;;;;;;20.1;18.1;;;;;;;10.35;98.8877;967.9158;;;;
2019/05/29 22:50:05;;;;;;;20.2;18.3;;;;;;;10.34;99.00098;967.8398;;;;
2019/05/29 22:52:31;;;;;;;23.6;21.4;;;;;;;10.29;98.5293;967.8312;;;;
2019/05/29 22:54:56;;;;;;;23.4;21.2;;;;;;;10.25;98.86523;967.933;;;;
2019/05/29 22:57:21;;;;;;;25.2;22.6;;;;;;;10.27;98.53516;967.9019;;;;
2019/05/29 22:59:47;;;;;;;21.3;19.3;;;;;;;10.26;99.06543;967.9194;;;;
2019/05/29 23:02:13;;;;;;;24;21.7;;;;;;;10.21;99.14551;967.868;;;;
2019/05/29 23:04:38;;;;;;;26.8;24.2;;;;;;;10.07;100;967.9021;;;;
2019/05/29 23:07:03;;;;;;;21.4;19.4;;;;;;;10.05;99.93848;967.8444;;;;
2019/05/29 23:09:31;;;;;;;25;22.6;;;;;;;10.04;100;967.892;;;;
2019/05/29 23:11:59;;;;;;;27.8;25;;;;;;;10.02;100;967.8942;;;;
2019/05/29 23:14:24;;;;;;;26;23.5;;;;;;;10.06;100;967.9036;;;;
2019/05/29 23:16:57;;;;;;;27.7;24.9;;;;;;;9.96;100;967.8311;;;;
2019/05/29 23:19:23;;;;;;;28;25.1;;;;;;;10.05;100;967.9554;;;;
2019/05/29 23:21:48;;;;;;;26.2;23.7;;;;;;;10;100;967.8826;;;;
2019/05/29 23:24:13;;;;;;;34.1;29.9;;;;;;;9.91;100;967.9077;;;;